Briefing drone pour Saint-apollinaire

Rechercher une autre localisation

Conditions de vol :


Nous sommes le : Mardi 29 novembre 2022
Il est 05:27 UTC (06:27 LT)

Lever de soleil : 06:37 UTC (07:37 LT)
Coucher de soleil : 16:18 UTC (17:18 LT)

Météo

L'essentiel des conditions de vol

VIGILANCE MÉTÉO FRANCE - Côte-dOr (21)
Pas de vigilances particulieres
CARTE TEMSI
CARTES DES FRONTS
METAR de LFSD
LFSD 290500Z AUTO 00000KT 5000 BR OVC036 05/05 Q1016

Date d'émission: 29/11/2022
Heure d'émission: 05:00 UTC
Vent: Calme
Visibilité horizontale: 5000 m
Plafond :
- Couvert à 3600ft (1097m)
Température: 5 °C
Point de rosée: 5 °C
Humidité: 100%
Pression (QNH): 1016 hPa
Conditions: Brume
TAF de LFSD
LFSD 010600Z 0100/0124 CNL

Conditions prévues :

Heure d'émission : Bulletin éffectué le 01 à 00:00 UTC
Prévision : Valide du 01 a 00:00 UTC au 01 a 23:59 UTC
Nuages : à 0ft (0 m)
WEBCAM POUR SAINT-APOLLINAIRE

Réglementation

Voler en sécurité

CARTES AERONAUTIQUE 1/500.000
CARTE AZBA (Reseau basse altitude)
CARTES VAC (LFSD)
SUP AIP




Chargement des AIP...
NOTAM (SAINT-APOLLINAIRE + Terrain à proximité / FIR )




Chargement des NOTAMS...
CONTACT PREFECTURE 21
Côte-dOr (21) : pref-drone@cote-dor.gouv.fr


Avertissement : Les données mises à disposition sont indicatives. Oxygène Drone ne pourra être tenu responsable de dégâts causés aux biens et aux personnes.